Time;durP1;ratioP1;P1;durP2;ratioP2;P2;SDS_P1;SDS_P2;PMS_P1;PMS_P2;Temp;Humidity;BMP_temperature;BMP_pressure;BME280_temperature;BME280_humidity;BME280_pressure;Samples;Min_cycle;Max_cycle;Signal;HPM_P1;HPM_P2
2023/07/16 00:01:53;;;;;;;6.57;2.78;;;;;;;;;;5070012;28;20095;-47
2023/07/16 00:04:18;;;;;;;5.10;2.30;;;;;;;;;;5068560;28;20120;-47
2023/07/16 00:06:43;;;;;;;5.60;2.97;;;;;;;;;;5050322;28;20387;-47
2023/07/16 00:09:09;;;;;;;7.97;2.43;;;;;;;;;;5069957;28;20287;-46
2023/07/16 00:11:37;;;;;;;11.20;3.37;;;;;;;;;;5068523;28;20013;-47
2023/07/16 00:14:02;;;;;;;6.32;2.47;;;;;;;;;;5066119;28;20259;-48
2023/07/16 00:16:28;;;;;;;8.10;2.95;;;;;;;;;;5066885;28;20019;-47
2023/07/16 00:18:53;;;;;;;10.63;3.38;;;;;;;;;;5068190;28;20029;-47
2023/07/16 00:21:18;;;;;;;6.07;2.50;;;;;;;;;;5067642;28;20028;-47
2023/07/16 00:23:44;;;;;;;9.50;2.73;;;;;;;;;;5064743;28;20029;-47
2023/07/16 00:26:09;;;;;;;5.82;2.95;;;;;;;;;;5066198;28;20302;-47
2023/07/16 00:28:34;;;;;;;5.63;3.00;;;;;;;;;;5064538;28;20047;-47
2023/07/16 00:31:00;;;;;;;6.88;2.83;;;;;;;;;;5064220;28;20639;-47
2023/07/16 00:33:25;;;;;;;6.72;3.03;;;;;;;;;;5067466;28;20028;-47
2023/07/16 00:35:51;;;;;;;6.67;2.80;;;;;;;;;;5044676;28;20048;-47
2023/07/16 00:38:19;;;;;;;6.40;3.00;;;;;;;;;;5068205;28;20027;-47
2023/07/16 00:40:48;;;;;;;7.32;2.72;;;;;;;;;;5068507;28;20745;-47
2023/07/16 00:43:13;;;;;;;7.22;3.25;;;;;;;;;;5067781;28;20024;-47
2023/07/16 00:45:39;;;;;;;6.27;2.97;;;;;;;;;;5066417;28;20426;-48
2023/07/16 00:48:06;;;;;;;5.10;3.08;;;;;;;;;;5064774;28;20314;-49
2023/07/16 00:50:34;;;;;;;5.35;2.70;;;;;;;;;;5050456;28;20387;-47
2023/07/16 00:53:02;;;;;;;5.45;2.85;;;;;;;;;;5067986;28;20127;-47
2023/07/16 00:55:29;;;;;;;4.50;2.60;;;;;;;;;;5065794;28;20017;-48
2023/07/16 00:57:57;;;;;;;5.70;2.70;;;;;;;;;;5068913;28;20020;-47
2023/07/16 01:00:22;;;;;;;7.90;2.58;;;;;;;;;;5068392;28;20035;-47
2023/07/16 01:02:48;;;;;;;5.40;2.50;;;;;;;;;;5067453;28;20029;-48
2023/07/16 01:05:13;;;;;;;10.60;2.63;;;;;;;;;;5045459;28;20350;-47
2023/07/16 01:07:43;;;;;;;4.13;2.83;;;;;;;;;;5057507;28;20024;-47
2023/07/16 01:10:08;;;;;;;4.85;2.97;;;;;;;;;;5066580;28;20386;-47
2023/07/16 01:12:34;;;;;;;4.57;2.67;;;;;;;;;;5064543;28;20456;-47
2023/07/16 01:14:59;;;;;;;4.95;3.03;;;;;;;;;;5065355;28;20020;-47
2023/07/16 01:17:24;;;;;;;5.30;2.78;;;;;;;;;;5067169;28;20021;-47
2023/07/16 01:19:50;;;;;;;6.25;2.95;;;;;;;;;;5066073;28;20513;-47
2023/07/16 01:22:48;;;;;;;2.95;1.75;;;;;;;;;;5059563;28;20025;-47
2023/07/16 01:25:36;;;;;;;5.72;2.55;;;;;;;;;;5013902;28;20391;-47
2023/07/16 01:28:14;;;;;;;6.65;3.63;;;;;;;;;;5053369;28;20044;-47
2023/07/16 01:30:41;;;;;;;8.40;3.65;;;;;;;;;;5065201;28;20070;-47
2023/07/16 01:33:07;;;;;;;6.78;3.35;;;;;;;;;;5043414;28;20037;-47
2023/07/16 01:35:33;;;;;;;5.90;3.00;;;;;;;;;;5057513;28;20086;-47
2023/07/16 01:37:59;;;;;;;6.45;3.08;;;;;;;;;;5062409;28;21292;-47
2023/07/16 01:40:24;;;;;;;5.90;2.83;;;;;;;;;;5067549;28;20037;-47
2023/07/16 01:42:49;;;;;;;7.07;3.23;;;;;;;;;;5068268;28;20103;-47
2023/07/16 01:45:15;;;;;;;5.00;3.10;;;;;;;;;;5066285;28;20052;-47
2023/07/16 01:48:06;;;;;;;7.37;2.77;;;;;;;;;;5062873;28;20352;-47
2023/07/16 01:50:31;;;;;;;6.22;2.50;;;;;;;;;;5036478;28;20336;-47
2023/07/16 01:52:57;;;;;;;5.60;2.83;;;;;;;;;;5065125;28;20479;-47
2023/07/16 01:55:22;;;;;;;5.77;3.10;;;;;;;;;;5045950;28;20035;-47
2023/07/16 01:57:47;;;;;;;5.80;2.17;;;;;;;;;;5067136;28;20024;-47
2023/07/16 02:00:12;;;;;;;3.83;2.27;;;;;;;;;;5064366;28;20321;-48
2023/07/16 02:02:38;;;;;;;6.65;2.72;;;;;;;;;;5065357;28;20467;-47
2023/07/16 02:05:03;;;;;;;2.30;1.47;;;;;;;;;;5064111;28;20021;-47
2023/07/16 02:07:29;;;;;;;5.18;2.60;;;;;;;;;;5067340;28;20478;-47
2023/07/16 02:09:54;;;;;;;3.30;2.03;;;;;;;;;;5065712;28;20032;-47
2023/07/16 02:12:19;;;;;;;4.50;2.50;;;;;;;;;;5046907;28;20267;-47
2023/07/16 02:14:44;;;;;;;5.23;2.70;;;;;;;;;;5064657;28;20402;-47
2023/07/16 02:17:10;;;;;;;5.03;2.70;;;;;;;;;;5066965;28;20036;-48
2023/07/16 02:19:35;;;;;;;6.97;2.80;;;;;;;;;;5067447;28;20081;-47
2023/07/16 02:22:00;;;;;;;4.20;2.70;;;;;;;;;;5065024;28;20395;-47
2023/07/16 02:24:25;;;;;;;4.23;2.87;;;;;;;;;;5047722;28;20039;-47
2023/07/16 02:26:51;;;;;;;5.28;3.05;;;;;;;;;;5050332;28;20055;-48
2023/07/16 02:29:16;;;;;;;5.07;2.93;;;;;;;;;;5068183;28;20113;-48
2023/07/16 02:31:43;;;;;;;5.83;2.70;;;;;;;;;;5070673;28;20246;-47
2023/07/16 02:34:08;;;;;;;7.13;2.90;;;;;;;;;;5071274;28;20116;-47
2023/07/16 02:36:34;;;;;;;7.80;2.93;;;;;;;;;;5068907;28;20104;-47
2023/07/16 02:38:59;;;;;;;8.38;2.78;;;;;;;;;;5065756;28;20290;-47
2023/07/16 02:41:27;;;;;;;6.80;2.73;;;;;;;;;;5068340;28;20035;-47
2023/07/16 02:43:59;;;;;;;5.22;3.20;;;;;;;;;;5067292;28;20278;-47
2023/07/16 02:46:24;;;;;;;4.88;3.03;;;;;;;;;;5065897;28;20135;-47
2023/07/16 02:48:49;;;;;;;4.63;2.70;;;;;;;;;;5035628;28;20453;-47
2023/07/16 02:51:15;;;;;;;8.90;3.30;;;;;;;;;;5051994;28;20021;-47
2023/07/16 02:53:40;;;;;;;7.47;2.90;;;;;;;;;;5070942;28;20027;-47
2023/07/16 02:56:05;;;;;;;5.73;3.40;;;;;;;;;;5069866;28;20044;-47
2023/07/16 02:58:30;;;;;;;8.63;3.13;;;;;;;;;;5070334;28;20028;-47
2023/07/16 03:00:56;;;;;;;4.10;3.03;;;;;;;;;;5070685;28;20032;-47
2023/07/16 03:03:21;;;;;;;7.07;2.93;;;;;;;;;;5063927;28;20291;-47
2023/07/16 03:05:46;;;;;;;5.60;2.97;;;;;;;;;;5068524;28;20029;-47
2023/07/16 03:08:11;;;;;;;6.63;3.47;;;;;;;;;;5071997;28;20017;-47
2023/07/16 03:10:37;;;;;;;5.97;3.20;;;;;;;;;;5066094;28;20044;-47
2023/07/16 03:13:02;;;;;;;10.47;4.57;;;;;;;;;;5068731;28;20025;-47
2023/07/16 03:15:27;;;;;;;4.07;2.73;;;;;;;;;;5065895;28;20087;-47
2023/07/16 03:17:52;;;;;;;7.53;3.27;;;;;;;;;;5067924;28;20749;-47
2023/07/16 03:20:18;;;;;;;6.80;3.53;;;;;;;;;;5069747;28;20036;-47
2023/07/16 03:22:43;;;;;;;7.97;3.60;;;;;;;;;;5067131;28;20020;-47
2023/07/16 03:25:08;;;;;;;5.77;3.30;;;;;;;;;;5064376;28;20025;-47
2023/07/16 03:27:33;;;;;;;6.60;2.92;;;;;;;;;;5067701;28;20455;-47
2023/07/16 03:29:59;;;;;;;7.10;3.63;;;;;;;;;;5067653;28;20538;-47
2023/07/16 03:32:24;;;;;;;4.27;2.97;;;;;;;;;;5066910;28;20293;-47
2023/07/16 03:34:49;;;;;;;5.80;3.70;;;;;;;;;;5065405;28;20314;-47
2023/07/16 03:37:15;;;;;;;7.10;3.50;;;;;;;;;;5066825;28;20027;-47
2023/07/16 03:39:40;;;;;;;5.67;3.00;;;;;;;;;;5070323;28;20287;-47
2023/07/16 03:42:05;;;;;;;7.63;3.30;;;;;;;;;;5068342;28;20027;-47
2023/07/16 03:44:30;;;;;;;5.32;3.63;;;;;;;;;;5046602;28;20066;-47
2023/07/16 03:46:56;;;;;;;5.43;3.13;;;;;;;;;;5065507;28;20070;-47
2023/07/16 03:49:21;;;;;;;6.22;3.78;;;;;;;;;;5066117;28;20537;-47
2023/07/16 03:51:46;;;;;;;7.73;3.40;;;;;;;;;;5065330;28;20383;-47
2023/07/16 03:54:11;;;;;;;5.60;3.50;;;;;;;;;;5064138;28;20276;-47
2023/07/16 03:56:37;;;;;;;5.83;3.30;;;;;;;;;;5066325;28;20095;-47
2023/07/16 03:59:04;;;;;;;8.60;3.70;;;;;;;;;;5070050;28;20618;-47
2023/07/16 04:01:29;;;;;;;5.88;3.30;;;;;;;;;;5067414;28;20025;-47
2023/07/16 04:03:55;;;;;;;7.33;3.70;;;;;;;;;;5064084;28;20032;-47
2023/07/16 04:06:23;;;;;;;6.83;3.67;;;;;;;;;;5068789;28;20279;-47
2023/07/16 04:08:48;;;;;;;5.65;3.65;;;;;;;;;;5066021;28;20287;-47
2023/07/16 04:11:13;;;;;;;7.43;3.77;;;;;;;;;;5068282;28;20020;-47
2023/07/16 04:13:39;;;;;;;8.80;3.63;;;;;;;;;;5068321;28;20283;-47
2023/07/16 04:16:04;;;;;;;7.95;3.33;;;;;;;;;;5066565;28;20043;-47
2023/07/16 04:18:29;;;;;;;3.23;2.23;;;;;;;;;;5066381;28;20492;-47
2023/07/16 04:20:54;;;;;;;5.35;3.63;;;;;;;;;;5068044;28;20284;-47
2023/07/16 04:23:20;;;;;;;8.97;3.83;;;;;;;;;;5046594;28;20079;-47
2023/07/16 04:25:45;;;;;;;8.88;4.18;;;;;;;;;;5069079;28;20266;-47
2023/07/16 04:28:11;;;;;;;9.10;4.50;;;;;;;;;;5068516;28;20021;-47
2023/07/16 04:30:40;;;;;;;7.43;3.53;;;;;;;;;;5070317;28;20028;-47
2023/07/16 04:33:05;;;;;;;8.60;4.45;;;;;;;;;;5069768;28;20375;-47
2023/07/16 04:35:30;;;;;;;12.87;7.50;;;;;;;;;;5050933;28;20479;-47
2023/07/16 04:37:56;;;;;;;8.70;4.57;;;;;;;;;;5065840;28;20263;-47
2023/07/16 04:40:21;;;;;;;8.38;3.60;;;;;;;;;;5069447;28;20032;-47
2023/07/16 04:42:46;;;;;;;5.70;3.40;;;;;;;;;;5067206;28;20073;-47
2023/07/16 04:45:15;;;;;;;5.90;3.30;;;;;;;;;;5065966;28;20258;-47
2023/07/16 04:47:40;;;;;;;5.18;3.60;;;;;;;;;;5069022;28;20263;-47
2023/07/16 04:50:06;;;;;;;7.97;3.40;;;;;;;;;;5068816;28;20047;-47
2023/07/16 04:52:31;;;;;;;6.63;3.58;;;;;;;;;;5065799;28;20032;-47
2023/07/16 04:54:56;;;;;;;8.00;4.38;;;;;;;;;;5061019;28;20069;-47
2023/07/16 04:57:22;;;;;;;7.50;3.63;;;;;;;;;;5060149;28;20058;-47
2023/07/16 04:59:47;;;;;;;6.32;3.95;;;;;;;;;;5047223;28;20032;-47
2023/07/16 05:02:13;;;;;;;8.87;3.60;;;;;;;;;;5062604;28;20057;-47
2023/07/16 05:04:39;;;;;;;9.32;4.15;;;;;;;;;;5064678;28;20373;-47
2023/07/16 05:07:04;;;;;;;7.43;4.87;;;;;;;;;;5068736;28;20104;-47
2023/07/16 05:09:29;;;;;;;7.13;4.47;;;;;;;;;;5066012;28;20282;-47
2023/07/16 05:11:55;;;;;;;7.63;4.05;;;;;;;;;;5069725;28;20055;-48
2023/07/16 05:14:20;;;;;;;7.93;4.13;;;;;;;;;;5068064;28;20379;-47
2023/07/16 05:16:46;;;;;;;8.00;4.07;;;;;;;;;;5067738;28;20017;-47
2023/07/16 05:19:11;;;;;;;9.63;4.50;;;;;;;;;;5066561;28;20025;-47
2023/07/16 05:21:36;;;;;;;5.23;4.23;;;;;;;;;;5062995;28;20047;-47
2023/07/16 05:24:02;;;;;;;7.63;4.70;;;;;;;;;;5049972;28;20036;-47
2023/07/16 05:26:28;;;;;;;7.97;4.63;;;;;;;;;;5065503;28;20033;-47
2023/07/16 05:28:53;;;;;;;9.30;4.70;;;;;;;;;;5066305;28;20550;-47
2023/07/16 05:31:18;;;;;;;10.10;5.17;;;;;;;;;;5050177;28;20486;-47
2023/07/16 05:33:43;;;;;;;7.77;4.27;;;;;;;;;;5067248;28;20101;-47
2023/07/16 05:36:09;;;;;;;6.70;4.50;;;;;;;;;;5065687;28;20028;-47
2023/07/16 05:38:34;;;;;;;8.25;4.45;;;;;;;;;;5049365;28;20378;-47
2023/07/16 05:41:01;;;;;;;7.27;3.97;;;;;;;;;;5052566;28;20028;-47
2023/07/16 05:43:26;;;;;;;8.27;4.40;;;;;;;;;;5065485;28;20255;-47
2023/07/16 05:45:51;;;;;;;7.90;4.27;;;;;;;;;;5066219;28;20096;-47
2023/07/16 05:48:17;;;;;;;7.67;4.60;;;;;;;;;;5066658;28;20032;-47
2023/07/16 05:50:43;;;;;;;5.97;4.63;;;;;;;;;;5069974;28;20107;-47
2023/07/16 05:53:08;;;;;;;8.68;5.05;;;;;;;;;;5067412;28;20055;-47
2023/07/16 05:55:34;;;;;;;7.23;5.20;;;;;;;;;;5060782;28;20020;-47
2023/07/16 05:57:59;;;;;;;8.50;5.20;;;;;;;;;;5067243;28;20024;-47
2023/07/16 06:00:24;;;;;;;7.23;4.50;;;;;;;;;;5066123;28;20059;-48
2023/07/16 06:02:50;;;;;;;7.13;4.25;;;;;;;;;;5065671;28;20399;-47
2023/07/16 06:05:15;;;;;;;6.67;4.53;;;;;;;;;;5066526;28;20029;-48
2023/07/16 06:07:40;;;;;;;8.88;4.72;;;;;;;;;;5062032;28;20498;-47
2023/07/16 06:10:06;;;;;;;12.40;3.87;;;;;;;;;;5060276;28;20028;-47
2023/07/16 06:12:31;;;;;;;8.00;4.10;;;;;;;;;;5065120;28;20047;-47
2023/07/16 06:14:56;;;;;;;8.77;4.37;;;;;;;;;;5068318;28;20086;-47
2023/07/16 06:17:22;;;;;;;5.50;4.30;;;;;;;;;;5064330;28;20067;-47
2023/07/16 06:19:49;;;;;;;8.33;4.10;;;;;;;;;;5062380;28;20788;-47
2023/07/16 06:22:15;;;;;;;9.10;4.55;;;;;;;;;;5048855;28;20313;-47
2023/07/16 06:24:40;;;;;;;8.73;4.37;;;;;;;;;;5059151;28;20087;-47
2023/07/16 06:27:05;;;;;;;6.67;4.07;;;;;;;;;;5067049;28;20020;-47
2023/07/16 06:29:31;;;;;;;5.65;4.13;;;;;;;;;;5067553;28;20286;-47
2023/07/16 06:31:56;;;;;;;6.10;4.33;;;;;;;;;;5067010;28;20021;-47
2023/07/16 06:34:22;;;;;;;5.70;3.50;;;;;;;;;;5066143;28;20024;-47
2023/07/16 06:36:47;;;;;;;6.60;4.47;;;;;;;;;;5064168;28;20025;-47
2023/07/16 06:39:12;;;;;;;7.83;4.33;;;;;;;;;;5029503;28;20091;-47
2023/07/16 06:41:38;;;;;;;7.70;4.00;;;;;;;;;;5062990;28;20127;-47
2023/07/16 06:44:03;;;;;;;5.53;3.40;;;;;;;;;;5065000;28;20016;-47
2023/07/16 06:46:33;;;;;;;7.45;3.97;;;;;;;;;;5064867;28;20286;-48
2023/07/16 06:48:59;;;;;;;5.93;4.07;;;;;;;;;;5063119;28;20021;-47
2023/07/16 06:51:24;;;;;;;5.27;2.60;;;;;;;;;;5065453;28;20028;-47
2023/07/16 06:53:49;;;;;;;6.50;4.28;;;;;;;;;;5064733;28;20569;-47
2023/07/16 06:56:15;;;;;;;6.17;3.90;;;;;;;;;;5064699;28;20535;-47
2023/07/16 06:58:40;;;;;;;10.45;4.38;;;;;;;;;;5066300;28;20027;-47
2023/07/16 07:01:05;;;;;;;6.60;3.90;;;;;;;;;;5067461;28;20016;-48
2023/07/16 07:03:33;;;;;;;6.90;4.20;;;;;;;;;;5066021;28;20017;-47
2023/07/16 07:05:58;;;;;;;5.97;4.03;;;;;;;;;;5066243;28;20071;-47
2023/07/16 07:08:23;;;;;;;9.25;4.57;;;;;;;;;;5061468;28;20364;-47
2023/07/16 07:10:49;;;;;;;6.53;3.90;;;;;;;;;;5040564;28;20643;-47
2023/07/16 07:13:14;;;;;;;7.18;4.53;;;;;;;;;;5058359;28;20150;-47
2023/07/16 07:15:41;;;;;;;7.53;4.40;;;;;;;;;;5044680;28;20033;-47
2023/07/16 07:18:06;;;;;;;6.70;3.92;;;;;;;;;;5064032;28;20088;-47
2023/07/16 07:20:32;;;;;;;6.43;3.87;;;;;;;;;;5067490;28;20535;-47
2023/07/16 07:22:58;;;;;;;6.43;3.70;;;;;;;;;;5052787;28;20025;-48
2023/07/16 07:25:24;;;;;;;6.60;3.78;;;;;;;;;;5071115;28;20302;-47
2023/07/16 07:27:52;;;;;;;4.03;2.53;;;;;;;;;;5068035;28;20121;-48
2023/07/16 07:30:17;;;;;;;4.95;2.88;;;;;;;;;;5073839;28;20059;-47
2023/07/16 07:32:42;;;;;;;6.67;3.30;;;;;;;;;;5064885;28;20178;-47
2023/07/16 07:35:10;;;;;;;7.50;3.70;;;;;;;;;;5070691;28;20027;-47
2023/07/16 07:37:38;;;;;;;5.00;3.38;;;;;;;;;;5051971;28;20021;-47
2023/07/16 07:40:04;;;;;;;4.93;3.25;;;;;;;;;;5069539;28;20027;-47
2023/07/16 07:42:29;;;;;;;4.35;2.88;;;;;;;;;;5058912;28;20037;-47
2023/07/16 07:44:54;;;;;;;4.30;3.25;;;;;;;;;;5064652;28;20055;-48
2023/07/16 07:47:20;;;;;;;7.78;3.45;;;;;;;;;;5055200;28;21336;-47
2023/07/16 07:49:45;;;;;;;4.63;3.28;;;;;;;;;;5067980;28;20017;-47
2023/07/16 07:52:13;;;;;;;6.70;3.13;;;;;;;;;;5066051;28;20032;-47
2023/07/16 07:54:39;;;;;;;4.85;3.22;;;;;;;;;;5068672;28;20275;-47
2023/07/16 07:57:07;;;;;;;4.67;3.37;;;;;;;;;;5051006;28;20009;-47
2023/07/16 07:59:32;;;;;;;7.18;3.72;;;;;;;;;;5047755;28;20398;-47
2023/07/16 08:01:58;;;;;;;6.53;3.10;;;;;;;;;;5062058;28;20028;-47
2023/07/16 08:04:26;;;;;;;5.63;2.97;;;;;;;;;;5068139;28;20285;-47
2023/07/16 08:06:53;;;;;;;6.18;3.38;;;;;;;;;;5066801;28;20020;-47
2023/07/16 08:09:18;;;;;;;6.07;3.38;;;;;;;;;;5065367;28;20037;-47
2023/07/16 08:11:43;;;;;;;5.93;4.40;;;;;;;;;;5062679;28;20020;-47
2023/07/16 08:14:09;;;;;;;4.70;3.23;;;;;;;;;;5061762;28;20033;-46
2023/07/16 08:16:34;;;;;;;5.50;3.63;;;;;;;;;;5065805;28;20024;-47
2023/07/16 08:18:59;;;;;;;4.57;2.90;;;;;;;;;;5068458;28;20362;-47
2023/07/16 08:21:24;;;;;;;4.93;3.30;;;;;;;;;;5063327;28;20021;-47
2023/07/16 08:23:50;;;;;;;4.72;3.03;;;;;;;;;;5063236;28;20129;-47
2023/07/16 08:26:16;;;;;;;7.67;3.40;;;;;;;;;;5067409;28;20051;-47
2023/07/16 08:28:46;;;;;;;7.40;3.60;;;;;;;;;;5068034;28;20324;-47
2023/07/16 08:31:12;;;;;;;5.90;3.55;;;;;;;;;;5060576;28;20060;-47
2023/07/16 08:33:38;;;;;;;7.32;3.47;;;;;;;;;;5069672;28;20012;-46
2023/07/16 08:36:03;;;;;;;5.45;4.05;;;;;;;;;;5066666;28;20020;-48
2023/07/16 08:38:28;;;;;;;8.60;4.77;;;;;;;;;;5064746;28;20046;-46
2023/07/16 08:40:54;;;;;;;5.95;3.85;;;;;;;;;;5061609;28;20286;-47
2023/07/16 08:43:20;;;;;;;6.47;3.37;;;;;;;;;;5069309;28;20025;-47
2023/07/16 08:45:46;;;;;;;5.55;3.35;;;;;;;;;;5072651;28;20037;-47
2023/07/16 08:48:11;;;;;;;6.32;3.13;;;;;;;;;;5068304;28;20036;-47
2023/07/16 08:50:37;;;;;;;5.68;3.25;;;;;;;;;;5068936;28;20036;-47
2023/07/16 08:53:06;;;;;;;4.85;2.75;;;;;;;;;;5069575;28;20031;-47
2023/07/16 08:55:31;;;;;;;5.18;3.10;;;;;;;;;;5059391;28;20095;-48
2023/07/16 08:58:00;;;;;;;7.07;2.92;;;;;;;;;;5060404;28;20095;-47
2023/07/16 09:00:26;;;;;;;6.82;2.78;;;;;;;;;;5067046;28;20051;-46
2023/07/16 09:02:57;;;;;;;5.78;2.67;;;;;;;;;;5064553;28;20375;-47
2023/07/16 09:05:23;;;;;;;4.97;2.45;;;;;;;;;;5070876;28;20038;-48
2023/07/16 09:07:51;;;;;;;4.45;2.92;;;;;;;;;;5067092;28;20033;-47
2023/07/16 09:10:16;;;;;;;4.80;2.70;;;;;;;;;;5061243;28;20088;-47
2023/07/16 09:12:45;;;;;;;3.88;2.33;;;;;;;;;;5049357;28;20146;-47
2023/07/16 09:15:11;;;;;;;5.75;2.83;;;;;;;;;;5064006;28;20488;-47
2023/07/16 09:17:38;;;;;;;6.15;2.47;;;;;;;;;;5059941;28;20467;-46
2023/07/16 09:20:03;;;;;;;7.28;2.47;;;;;;;;;;5066409;28;20039;-46
2023/07/16 09:22:31;;;;;;;4.68;2.33;;;;;;;;;;5065801;28;20017;-47
2023/07/16 09:24:57;;;;;;;4.47;2.20;;;;;;;;;;5048790;28;20020;-47
2023/07/16 09:27:28;;;;;;;3.97;2.33;;;;;;;;;;5057561;28;20151;-47
2023/07/16 09:29:53;;;;;;;3.72;2.38;;;;;;;;;;5062206;28;20032;-47
2023/07/16 09:32:19;;;;;;;2.40;1.33;;;;;;;;;;5060585;28;20060;-46
2023/07/16 09:34:47;;;;;;;5.85;2.58;;;;;;;;;;5044438;28;20822;-47
2023/07/16 09:37:13;;;;;;;4.25;2.25;;;;;;;;;;5061938;28;20087;-47
2023/07/16 09:39:38;;;;;;;5.73;2.60;;;;;;;;;;5051655;28;20032;-47
2023/07/16 09:42:05;;;;;;;5.03;2.58;;;;;;;;;;5048031;28;20020;-47
2023/07/16 09:44:31;;;;;;;3.38;1.83;;;;;;;;;;5063073;28;20024;-48
2023/07/16 09:46:56;;;;;;;4.75;2.85;;;;;;;;;;5045593;28;20078;-47
2023/07/16 09:49:21;;;;;;;3.78;2.20;;;;;;;;;;5061009;28;20032;-46
2023/07/16 09:51:48;;;;;;;5.80;3.00;;;;;;;;;;5057376;28;20020;-46
2023/07/16 09:54:15;;;;;;;5.85;3.58;;;;;;;;;;5060428;28;20279;-46
2023/07/16 09:56:48;;;;;;;3.55;1.75;;;;;;;;;;5060045;28;20020;-47
2023/07/16 09:59:20;;;;;;;3.75;2.03;;;;;;;;;;5061217;28;20078;-47
2023/07/16 10:01:46;;;;;;;9.70;2.67;;;;;;;;;;5046742;28;20467;-47
2023/07/16 10:04:15;;;;;;;3.90;2.17;;;;;;;;;;5062784;28;20037;-47
2023/07/16 10:06:57;;;;;;;4.05;1.67;;;;;;;;;;5053736;28;20029;-47
2023/07/16 10:09:36;;;;;;;6.57;2.30;;;;;;;;;;5062883;28;20119;-47
2023/07/16 10:12:14;;;;;;;3.65;1.90;;;;;;;;;;5061302;28;20088;-47
2023/07/16 10:15:09;;;;;;;4.50;1.92;;;;;;;;;;5060361;28;20777;-47
2023/07/16 10:17:34;;;;;;;3.55;1.70;;;;;;;;;;5043601;28;21325;-47
2023/07/16 10:20:07;;;;;;;4.50;1.90;;;;;;;;;;5059087;28;20025;-47
2023/07/16 10:22:39;;;;;;;4.53;1.77;;;;;;;;;;5059470;28;20278;-47
2023/07/16 10:25:04;;;;;;;;;;;;;;;;;;5065586;28;20017;-47
2023/07/16 10:27:30;;;;;;;6.27;2.03;;;;;;;;;;5064240;28;19915;-47
2023/07/16 10:29:55;;;;;;;3.50;1.90;;;;;;;;;;5061380;28;20020;-47
2023/07/16 10:32:21;;;;;;;3.53;2.08;;;;;;;;;;5042642;28;20037;-46
2023/07/16 10:34:46;;;;;;;5.55;2.42;;;;;;;;;;5058970;28;20056;-47
2023/07/16 10:37:11;;;;;;;4.30;1.70;;;;;;;;;;5058057;28;20085;-47
2023/07/16 10:39:45;;;;;;;5.13;1.73;;;;;;;;;;5062235;28;20090;-47
2023/07/16 10:42:10;;;;;;;6.45;1.88;;;;;;;;;;5062052;28;20040;-48
2023/07/16 10:44:36;;;;;;;3.83;2.17;;;;;;;;;;5062397;28;20073;-47
2023/07/16 10:47:01;;;;;;;4.95;1.98;;;;;;;;;;5057177;28;20056;-47
2023/07/16 10:49:28;;;;;;;4.07;2.20;;;;;;;;;;5060757;28;20119;-47
2023/07/16 10:51:53;;;;;;;4.25;1.92;;;;;;;;;;5060275;28;20032;-47
2023/07/16 10:54:19;;;;;;;3.43;2.10;;;;;;;;;;5065541;28;20663;-47
2023/07/16 10:56:46;;;;;;;5.22;2.30;;;;;;;;;;5065432;28;20550;-47
2023/07/16 10:59:12;;;;;;;7.13;2.70;;;;;;;;;;5039896;28;20125;-47
2023/07/16 11:01:37;;;;;;;5.28;2.33;;;;;;;;;;5071061;28;20506;-47
2023/07/16 11:04:06;;;;;;;3.60;2.10;;;;;;;;;;5046660;28;20021;-47
2023/07/16 11:06:32;;;;;;;4.10;2.28;;;;;;;;;;5062805;28;20429;-47
2023/07/16 11:09:05;;;;;;;6.10;2.03;;;;;;;;;;5062094;28;20158;-47
2023/07/16 11:11:31;;;;;;;4.05;2.40;;;;;;;;;;5063942;28;20027;-47
2023/07/16 11:13:58;;;;;;;5.20;2.40;;;;;;;;;;5060560;28;20020;-47
2023/07/16 11:16:23;;;;;;;4.55;2.10;;;;;;;;;;5066886;28;20282;-47
2023/07/16 11:18:49;;;;;;;3.70;1.90;;;;;;;;;;5058928;28;20028;-46
2023/07/16 11:21:18;;;;;;;4.13;2.20;;;;;;;;;;5056812;28;20020;-47
2023/07/16 11:23:43;;;;;;;3.75;2.10;;;;;;;;;;5042944;28;20024;-47
2023/07/16 11:26:08;;;;;;;5.67;2.07;;;;;;;;;;5052478;28;20039;-47
2023/07/16 11:28:38;;;;;;;7.10;2.60;;;;;;;;;;5065782;28;20285;-47
2023/07/16 11:31:16;;;;;;;6.43;2.13;;;;;;;;;;5064756;28;20147;-47
2023/07/16 11:33:42;;;;;;;6.78;2.40;;;;;;;;;;5066076;28;20021;-46
2023/07/16 11:36:07;;;;;;;4.63;2.08;;;;;;;;;;5066024;28;20028;-47
2023/07/16 11:38:35;;;;;;;4.63;2.17;;;;;;;;;;5066018;28;20024;-47
2023/07/16 11:41:01;;;;;;;3.17;1.80;;;;;;;;;;5047909;28;20413;-47
2023/07/16 11:43:26;;;;;;;5.63;2.57;;;;;;;;;;5064917;28;20524;-47
2023/07/16 11:45:51;;;;;;;3.03;0.90;;;;;;;;;;5057716;28;20031;-47
2023/07/16 11:48:16;;;;;;;4.07;2.10;;;;;;;;;;5066475;28;20048;-47
2023/07/16 11:50:42;;;;;;;6.10;2.23;;;;;;;;;;5061913;28;20305;-47
2023/07/16 11:53:07;;;;;;;5.87;1.87;;;;;;;;;;5056812;28;20305;-46
2023/07/16 11:55:33;;;;;;;4.38;1.73;;;;;;;;;;5045148;28;20035;-47
2023/07/16 11:57:59;;;;;;;10.23;2.50;;;;;;;;;;5057487;28;20074;-46
2023/07/16 12:00:24;;;;;;;5.88;1.90;;;;;;;;;;5059141;28;20036;-47
2023/07/16 12:02:53;;;;;;;3.28;2.10;;;;;;;;;;5058237;28;20025;-47
2023/07/16 12:05:18;;;;;;;5.75;1.95;;;;;;;;;;5059482;28;20055;-47
2023/07/16 12:07:44;;;;;;;4.63;2.17;;;;;;;;;;5052377;28;20479;-47
2023/07/16 12:10:09;;;;;;;5.32;1.80;;;;;;;;;;5058242;28;20060;-47
2023/07/16 12:12:37;;;;;;;6.47;1.73;;;;;;;;;;5044204;28;20025;-46
2023/07/16 12:15:03;;;;;;;3.33;1.73;;;;;;;;;;5056968;28;20033;-47
2023/07/16 12:17:28;;;;;;;4.13;1.60;;;;;;;;;;5044105;28;20029;-47
2023/07/16 12:19:53;;;;;;;5.80;2.07;;;;;;;;;;5057429;28;20515;-47
2023/07/16 12:22:19;;;;;;;5.40;1.88;;;;;;;;;;5059935;28;20020;-46
2023/07/16 12:24:45;;;;;;;4.70;1.70;;;;;;;;;;5054407;28;20106;-47
2023/07/16 12:27:10;;;;;;;4.03;2.25;;;;;;;;;;5058301;28;20403;-48
2023/07/16 12:29:35;;;;;;;5.90;1.80;;;;;;;;;;5058845;28;20024;-47
2023/07/16 12:32:01;;;;;;;4.20;2.10;;;;;;;;;;5040525;28;20025;-47
2023/07/16 12:34:26;;;;;;;5.37;2.10;;;;;;;;;;5060943;28;20390;-47
2023/07/16 12:36:51;;;;;;;3.27;1.73;;;;;;;;;;5057866;28;20329;-47
2023/07/16 12:39:16;;;;;;;4.57;1.67;;;;;;;;;;5057687;28;20340;-47
2023/07/16 12:41:43;;;;;;;3.87;1.80;;;;;;;;;;5060459;28;20337;-47
2023/07/16 12:44:08;;;;;;;4.10;1.90;;;;;;;;;;5057216;28;20021;-46
2023/07/16 12:46:33;;;;;;;4.00;1.80;;;;;;;;;;5038343;28;20042;-47
2023/07/16 12:48:58;;;;;;;3.07;1.50;;;;;;;;;;5055575;28;20032;-47
2023/07/16 12:51:26;;;;;;;6.25;1.55;;;;;;;;;;5058420;28;20094;-47
2023/07/16 12:53:52;;;;;;;3.22;1.65;;;;;;;;;;5056750;28;20029;-47
2023/07/16 12:56:17;;;;;;;4.67;1.90;;;;;;;;;;5057173;28;20036;-47
2023/07/16 12:58:42;;;;;;;4.50;1.70;;;;;;;;;;5057559;28;20358;-47
2023/07/16 13:01:07;;;;;;;4.43;1.97;;;;;;;;;;5039891;28;20036;-47
2023/07/16 13:03:33;;;;;;;6.47;1.80;;;;;;;;;;5058280;28;20549;-47
2023/07/16 13:06:03;;;;;;;5.20;1.77;;;;;;;;;;5055174;28;20270;-47
2023/07/16 13:08:28;;;;;;;5.20;1.65;;;;;;;;;;5053999;28;20012;-47
2023/07/16 13:10:54;;;;;;;3.80;1.73;;;;;;;;;;5057871;28;20518;-47
2023/07/16 13:13:21;;;;;;;3.38;1.60;;;;;;;;;;5056719;28;20052;-46
2023/07/16 13:15:47;;;;;;;3.87;1.80;;;;;;;;;;5057002;28;20029;-47
2023/07/16 13:18:12;;;;;;;4.63;1.85;;;;;;;;;;5059917;28;20105;-47
2023/07/16 13:20:40;;;;;;;4.93;2.10;;;;;;;;;;5058312;28;20024;-47
2023/07/16 13:23:05;;;;;;;3.17;1.85;;;;;;;;;;5055378;28;20054;-47
2023/07/16 13:25:30;;;;;;;3.72;2.00;;;;;;;;;;5059569;28;20033;-47
2023/07/16 13:27:56;;;;;;;6.00;2.77;;;;;;;;;;5058286;28;20021;-47
2023/07/16 13:30:22;;;;;;;3.30;1.88;;;;;;;;;;5059408;28;20323;-46
2023/07/16 13:32:48;;;;;;;4.43;1.73;;;;;;;;;;5039547;28;20101;-47
2023/07/16 13:35:14;;;;;;;3.20;1.48;;;;;;;;;;5060327;28;20020;-47
2023/07/16 13:37:39;;;;;;;4.75;1.83;;;;;;;;;;5056957;28;20029;-47
2023/07/16 13:40:05;;;;;;;4.35;1.70;;;;;;;;;;5059889;28;20024;-47
2023/07/16 13:42:30;;;;;;;6.35;2.25;;;;;;;;;;5043315;28;20549;-47
2023/07/16 13:44:55;;;;;;;4.63;2.10;;;;;;;;;;5055950;28;20028;-47
2023/07/16 13:47:21;;;;;;;6.13;2.33;;;;;;;;;;5056511;28;20040;-47
2023/07/16 13:49:46;;;;;;;6.80;2.03;;;;;;;;;;5059384;28;20287;-47
2023/07/16 13:52:11;;;;;;;3.77;2.27;;;;;;;;;;5058829;28;20187;-47
2023/07/16 13:54:37;;;;;;;3.63;1.90;;;;;;;;;;5040931;28;20285;-47
2023/07/16 13:57:02;;;;;;;5.13;2.20;;;;;;;;;;5058830;28;20099;-46
2023/07/16 13:59:27;;;;;;;5.43;1.80;;;;;;;;;;5058921;28;20032;-47
2023/07/16 14:02:00;;;;;;;3.40;1.73;;;;;;;;;;5052355;28;20085;-47
2023/07/16 14:04:25;;;;;;;4.97;2.00;;;;;;;;;;5052813;28;20275;-47
2023/07/16 14:06:52;;;;;;;5.63;1.90;;;;;;;;;;5053515;28;20029;-47
2023/07/16 14:09:18;;;;;;;6.82;1.95;;;;;;;;;;5053616;28;20470;-47
2023/07/16 14:11:44;;;;;;;3.83;1.80;;;;;;;;;;5059223;28;20047;-47
2023/07/16 14:14:09;;;;;;;6.35;2.08;;;;;;;;;;5038736;28;20139;-46
2023/07/16 14:16:34;;;;;;;6.20;1.70;;;;;;;;;;5039906;28;20794;-47
2023/07/16 14:18:59;;;;;;;4.07;1.80;;;;;;;;;;5036003;28;20040;-47
2023/07/16 14:21:25;;;;;;;4.53;1.73;;;;;;;;;;5058383;28;20278;-46
2023/07/16 14:23:50;;;;;;;6.50;2.13;;;;;;;;;;5055912;28;20853;-47
2023/07/16 14:26:18;;;;;;;4.17;1.40;;;;;;;;;;5057648;28;20044;-47
2023/07/16 14:28:44;;;;;;;4.10;1.85;;;;;;;;;;5062259;28;20081;-47
2023/07/16 14:31:09;;;;;;;5.72;2.30;;;;;;;;;;5061215;28;20476;-47
2023/07/16 14:33:35;;;;;;;7.05;1.98;;;;;;;;;;5061732;28;20047;-47
2023/07/16 14:36:00;;;;;;;4.03;2.10;;;;;;;;;;5062311;28;20540;-47
2023/07/16 14:38:25;;;;;;;4.00;2.23;;;;;;;;;;5062884;28;20275;-46